Time;durP1;ratioP1;P1;durP2;ratioP2;P2;SDS_P1;SDS_P2;PMS_P1;PMS_P2;Temp;Humidity;BMP_temperature;BMP_pressure;BME280_temperature;BME280_humidity;BME280_pressure;Samples;Min_cycle;Max_cycle;Signal;HPM_P1;HPM_P2
2022/01/05 00:02:03;;;;;;;7.30;1.58;;;2.50;99.90;;;;;;4803967;29;20406;-79
2022/01/05 00:04:29;;;;;;;9.68;1.85;;;2.50;99.90;;;;;;4804457;29;20066;-80
2022/01/05 00:06:55;;;;;;;6.05;1.15;;;2.50;99.90;;;;;;4805088;29;20433;-79
2022/01/05 00:09:20;;;;;;;9.55;1.45;;;2.50;99.90;;;;;;4808208;29;20252;-79
2022/01/05 00:11:46;;;;;;;9.35;1.38;;;2.50;99.90;;;;;;4791779;29;20054;-79
2022/01/05 00:14:12;;;;;;;10.93;2.00;;;2.50;99.90;;;;;;4808158;29;20057;-79
2022/01/05 00:16:37;;;;;;;11.27;2.10;;;2.50;99.90;;;;;;4807577;29;20084;-80
2022/01/05 00:19:03;;;;;;;13.40;1.90;;;2.50;99.90;;;;;;4808174;29;20051;-79
2022/01/05 00:21:29;;;;;;;9.23;1.50;;;2.50;99.90;;;;;;4806436;29;20047;-79
2022/01/05 00:23:55;;;;;;;9.43;2.03;;;2.50;99.90;;;;;;4807973;29;20448;-79
2022/01/05 00:26:20;;;;;;;9.40;1.52;;;2.50;99.90;;;;;;4807528;29;20483;-79
2022/01/05 00:28:46;;;;;;;13.02;2.13;;;2.50;99.90;;;;;;4806997;29;20050;-79
2022/01/05 00:31:11;;;;;;;12.52;2.08;;;2.50;99.90;;;;;;4807398;29;20046;-79
2022/01/05 00:33:37;;;;;;;8.10;2.10;;;2.50;99.90;;;;;;4807023;29;20082;-79
2022/01/05 00:36:04;;;;;;;12.30;2.20;;;2.60;99.90;;;;;;4791675;29;20055;-79
2022/01/05 00:38:29;;;;;;;11.90;2.40;;;2.50;99.90;;;;;;4791257;29;20047;-79
2022/01/05 00:40:55;;;;;;;11.00;2.35;;;2.60;99.90;;;;;;4807553;29;20055;-79
2022/01/05 00:43:20;;;;;;;14.10;2.35;;;2.60;99.90;;;;;;4807444;29;20051;-79
2022/01/05 00:45:46;;;;;;;13.18;2.90;;;2.60;99.90;;;;;;4807175;29;20054;-79
2022/01/05 00:48:12;;;;;;;17.08;1.95;;;2.60;99.90;;;;;;4806283;29;20051;-79
2022/01/05 00:50:37;;;;;;;6.45;1.58;;;2.70;99.90;;;;;;4807044;29;20096;-79
2022/01/05 00:53:03;;;;;;;13.68;2.10;;;2.70;99.90;;;;;;4806480;29;20402;-79
2022/01/05 00:55:29;;;;;;;8.52;2.08;;;2.70;99.90;;;;;;4807317;29;20058;-79
2022/01/05 00:57:54;;;;;;;13.82;2.08;;;2.70;99.90;;;;;;4805757;29;20440;-79
2022/01/05 01:00:20;;;;;;;12.25;2.28;;;2.80;99.90;;;;;;4807537;29;20443;-79
2022/01/05 01:02:46;;;;;;;12.18;1.83;;;2.80;99.90;;;;;;4807120;29;20385;-79
2022/01/05 01:05:13;;;;;;;15.32;2.88;;;2.70;99.90;;;;;;4807492;29;20393;-79
2022/01/05 01:07:38;;;;;;;8.52;1.98;;;2.70;99.90;;;;;;4805609;29;20094;-78
2022/01/05 01:10:05;;;;;;;11.15;2.65;;;2.70;99.90;;;;;;4807100;29;20082;-78
2022/01/05 01:12:32;;;;;;;11.63;2.30;;;2.70;99.90;;;;;;4807101;29;20055;-79
2022/01/05 01:14:58;;;;;;;11.65;2.17;;;2.70;99.90;;;;;;4807148;29;20059;-79
2022/01/05 01:17:24;;;;;;;13.57;2.28;;;2.80;99.90;;;;;;4807020;29;20051;-79
2022/01/05 01:19:49;;;;;;;13.80;2.53;;;2.80;99.90;;;;;;4805865;29;20054;-79
2022/01/05 01:22:15;;;;;;;13.60;2.50;;;2.80;99.90;;;;;;4807018;29;20050;-79
2022/01/05 01:24:40;;;;;;;13.25;1.70;;;2.70;99.90;;;;;;4806465;29;20114;-79
2022/01/05 01:27:06;;;;;;;14.30;2.30;;;2.70;99.90;;;;;;4806861;29;20375;-80
2022/01/05 01:29:32;;;;;;;13.82;2.35;;;2.60;99.90;;;;;;4806764;29;20051;-79
2022/01/05 01:31:57;;;;;;;13.85;2.17;;;2.60;99.90;;;;;;4805319;29;20062;-79
2022/01/05 01:34:23;;;;;;;13.38;2.20;;;2.60;99.90;;;;;;4806684;29;20054;-79
2022/01/05 01:36:49;;;;;;;11.82;2.30;;;2.60;99.90;;;;;;4806295;29;20054;-79
2022/01/05 01:39:14;;;;;;;11.07;2.20;;;2.60;99.90;;;;;;4806596;29;20417;-79
2022/01/05 01:41:40;;;;;;;10.15;2.33;;;2.60;99.90;;;;;;4804960;29;20115;-79
2022/01/05 01:44:06;;;;;;;12.38;2.15;;;2.60;99.90;;;;;;4806233;29;20090;-79
2022/01/05 01:46:31;;;;;;;20.05;2.53;;;2.60;99.90;;;;;;4806230;29;20046;-79
2022/01/05 01:48:57;;;;;;;10.82;2.22;;;2.60;99.90;;;;;;4805999;29;20379;-79
2022/01/05 01:51:23;;;;;;;12.93;2.10;;;2.60;99.90;;;;;;4806401;29;20120;-79
2022/01/05 01:53:48;;;;;;;13.25;2.75;;;2.70;99.90;;;;;;4805921;29;20061;-80
2022/01/05 01:56:14;;;;;;;13.68;2.42;;;2.60;99.90;;;;;;4804829;29;20042;-79
2022/01/05 01:58:40;;;;;;;11.70;2.03;;;2.60;99.90;;;;;;4804821;29;20054;-79
2022/01/05 02:01:06;;;;;;;14.93;2.35;;;2.60;99.90;;;;;;4806120;29;20116;-79
2022/01/05 02:03:31;;;;;;;14.77;2.20;;;2.70;99.90;;;;;;4806179;29;20394;-79
2022/01/05 02:05:57;;;;;;;13.57;1.90;;;2.70;99.90;;;;;;4805778;29;20061;-79
2022/01/05 02:08:23;;;;;;;14.82;2.22;;;2.70;99.90;;;;;;4806084;29;20486;-79
2022/01/05 02:10:49;;;;;;;10.77;2.15;;;2.70;99.90;;;;;;4805599;29;20398;-79
2022/01/05 02:13:15;;;;;;;10.13;2.20;;;2.80;99.90;;;;;;4804697;29;20095;-79
2022/01/05 02:15:41;;;;;;;9.95;2.00;;;2.80;99.90;;;;;;4805802;29;20062;-79
2022/01/05 02:18:21;;;;;;;9.95;2.00;;;2.80;99.90;;;;;;4805382;29;20394;-79
2022/01/05 02:20:47;;;;;;;14.30;2.42;;;2.80;99.90;;;;;;4805530;29;20099;-80
2022/01/05 02:23:13;;;;;;;12.10;2.30;;;2.70;99.90;;;;;;4804775;29;20091;-79
2022/01/05 02:25:38;;;;;;;17.38;2.40;;;2.80;99.90;;;;;;4804827;29;20133;-79
2022/01/05 02:28:04;;;;;;;14.73;2.63;;;2.80;99.90;;;;;;4804227;29;20161;-79
2022/01/05 02:30:30;;;;;;;14.15;2.10;;;2.70;99.90;;;;;;4805490;29;20483;-79
2022/01/05 02:32:56;;;;;;;21.02;3.13;;;2.80;99.90;;;;;;4804213;29;20402;-79
2022/01/05 02:35:22;;;;;;;11.70;2.53;;;2.80;99.90;;;;;;4804666;29;20062;-79
2022/01/05 02:37:50;;;;;;;14.55;2.33;;;2.80;99.90;;;;;;4804195;29;20050;-80
2022/01/05 02:40:16;;;;;;;14.35;2.30;;;2.80;99.90;;;;;;4805597;29;20054;-79
2022/01/05 02:42:42;;;;;;;13.70;2.38;;;2.90;99.90;;;;;;4804364;29;20050;-79
2022/01/05 02:45:09;;;;;;;15.98;2.40;;;2.90;99.90;;;;;;4803984;29;20053;-79
2022/01/05 02:47:35;;;;;;;13.32;2.30;;;2.90;99.90;;;;;;4804536;29;20051;-79
2022/01/05 02:50:01;;;;;;;21.35;2.75;;;2.90;99.90;;;;;;4805068;29;20059;-79
2022/01/05 02:52:26;;;;;;;16.65;2.38;;;2.90;99.90;;;;;;4804479;29;20051;-79
2022/01/05 02:54:52;;;;;;;12.45;2.10;;;2.90;99.90;;;;;;4805047;29;20051;-79
2022/01/05 02:57:18;;;;;;;15.07;2.40;;;2.90;99.90;;;;;;4805392;29;20050;-79
2022/01/05 02:59:43;;;;;;;12.50;2.20;;;2.90;99.90;;;;;;4805570;29;20054;-79
2022/01/05 03:02:09;;;;;;;16.60;2.50;;;2.80;99.90;;;;;;4804614;29;20059;-79
2022/01/05 03:04:35;;;;;;;12.13;2.33;;;2.90;99.90;;;;;;4805628;29;20054;-79
2022/01/05 03:07:00;;;;;;;18.00;2.47;;;3.00;99.90;;;;;;4803953;29;20057;-79
2022/01/05 03:09:26;;;;;;;13.63;2.33;;;3.00;99.90;;;;;;4805733;29;20394;-79
2022/01/05 03:11:52;;;;;;;12.77;2.50;;;3.00;99.90;;;;;;4803822;29;20045;-79
2022/01/05 03:14:18;;;;;;;15.50;2.53;;;3.00;99.90;;;;;;4805302;29;20129;-79
2022/01/05 03:16:44;;;;;;;15.32;2.58;;;3.10;99.90;;;;;;4804201;29;20058;-79
2022/01/05 03:19:10;;;;;;;18.58;2.55;;;3.10;99.90;;;;;;4803667;29;20568;-80
2022/01/05 03:21:35;;;;;;;18.58;2.78;;;3.20;99.90;;;;;;4805288;29;20485;-80
2022/01/05 03:24:01;;;;;;;12.35;2.70;;;3.30;99.90;;;;;;4804932;29;20474;-79
2022/01/05 03:26:26;;;;;;;16.27;2.17;;;3.30;99.90;;;;;;4805306;29;20129;-79
2022/01/05 03:28:52;;;;;;;11.90;2.70;;;3.30;99.90;;;;;;4805246;29;20047;-79
2022/01/05 03:31:18;;;;;;;16.42;2.55;;;3.40;99.90;;;;;;4804952;29;20054;-80
2022/01/05 03:33:43;;;;;;;14.65;2.53;;;3.50;99.90;;;;;;4805167;29;20054;-79
2022/01/05 03:36:09;;;;;;;10.52;1.90;;;3.50;99.90;;;;;;4804806;29;20066;-79
2022/01/05 03:38:34;;;;;;;16.92;2.65;;;3.60;99.90;;;;;;4803835;29;20051;-79
2022/01/05 03:41:00;;;;;;;13.50;2.15;;;3.50;99.90;;;;;;4804820;29;20046;-80
2022/01/05 03:43:26;;;;;;;19.17;2.65;;;3.50;99.90;;;;;;4807475;29;20047;-79
2022/01/05 03:45:51;;;;;;;12.10;2.40;;;3.50;99.90;;;;;;4808233;29;20123;-79
2022/01/05 03:48:18;;;;;;;13.30;2.50;;;3.50;99.90;;;;;;4806980;29;20086;-79
2022/01/05 03:50:44;;;;;;;15.15;2.45;;;3.60;99.90;;;;;;4807538;29;20098;-79
2022/01/05 03:53:10;;;;;;;14.43;2.38;;;3.60;99.90;;;;;;4806836;29;20523;-79
2022/01/05 03:55:36;;;;;;;11.02;2.00;;;3.70;99.90;;;;;;4807271;29;20078;-79
2022/01/05 03:58:02;;;;;;;12.82;2.15;;;3.60;99.90;;;;;;4806697;29;20054;-80
2022/01/05 04:00:29;;;;;;;15.43;2.42;;;3.70;99.90;;;;;;4806006;29;20463;-79
2022/01/05 04:02:56;;;;;;;13.48;2.08;;;3.70;99.90;;;;;;4806053;29;20051;-79
2022/01/05 04:05:21;;;;;;;13.18;2.10;;;3.70;99.90;;;;;;4805563;29;20042;-79
2022/01/05 04:07:47;;;;;;;11.90;2.53;;;3.70;99.90;;;;;;4805998;29;20054;-79
2022/01/05 04:10:13;;;;;;;15.07;1.85;;;3.80;99.90;;;;;;4806536;29;20049;-80
2022/01/05 04:12:38;;;;;;;14.00;1.98;;;3.80;99.90;;;;;;4805916;29;20093;-79
2022/01/05 04:15:04;;;;;;;12.38;2.15;;;3.90;99.90;;;;;;4806577;29;20047;-80
2022/01/05 04:17:30;;;;;;;13.02;1.70;;;3.90;99.90;;;;;;4807075;29;20047;-79
2022/01/05 04:19:56;;;;;;;9.90;1.65;;;4.00;99.90;;;;;;4805535;29;20559;-79
2022/01/05 04:22:21;;;;;;;10.90;2.00;;;4.00;99.90;;;;;;4806126;29;20059;-79
2022/01/05 04:24:47;;;;;;;12.98;1.90;;;4.00;99.90;;;;;;4806578;29;20055;-79
2022/01/05 04:27:13;;;;;;;7.57;1.70;;;4.00;99.90;;;;;;4806132;29;20054;-79
2022/01/05 04:29:38;;;;;;;5.75;1.33;;;4.00;99.90;;;;;;4806542;29;20042;-79
2022/01/05 04:32:04;;;;;;;7.40;1.30;;;4.00;99.90;;;;;;4805951;29;20061;-80
2022/01/05 04:34:30;;;;;;;4.85;1.33;;;3.90;99.90;;;;;;4805560;29;20050;-79
2022/01/05 04:36:55;;;;;;;10.70;1.77;;;3.80;99.90;;;;;;4805826;29;20402;-79
2022/01/05 04:39:21;;;;;;;9.77;1.83;;;3.80;99.90;;;;;;4805742;29;20043;-79
2022/01/05 04:41:46;;;;;;;11.10;1.88;;;3.70;99.90;;;;;;4806371;29;20443;-79
2022/01/05 04:44:12;;;;;;;8.20;1.67;;;3.70;99.90;;;;;;4805116;29;20051;-79
2022/01/05 04:46:38;;;;;;;8.35;1.80;;;3.70;99.90;;;;;;4806326;29;20090;-79
2022/01/05 04:49:04;;;;;;;7.72;1.70;;;3.60;99.90;;;;;;4806419;29;20050;-79
2022/01/05 04:51:30;;;;;;;11.65;1.77;;;3.70;99.90;;;;;;4768526;29;1166850;-79
2022/01/05 04:53:56;;;;;;;14.32;1.75;;;3.50;99.90;;;;;;4807692;29;20129;-79
2022/01/05 04:56:21;;;;;;;13.63;2.40;;;3.70;99.90;;;;;;4806708;29;20051;-79
2022/01/05 04:58:47;;;;;;;11.98;1.98;;;3.50;99.90;;;;;;4806401;29;20055;-79
2022/01/05 05:01:13;;;;;;;16.65;2.30;;;3.40;99.90;;;;;;4806704;29;20055;-79
2022/01/05 05:03:39;;;;;;;11.85;1.95;;;3.50;99.90;;;;;;4805901;29;20521;-79
2022/01/05 05:06:05;;;;;;;14.18;2.25;;;3.40;99.90;;;;;;4806095;29;20061;-79
2022/01/05 05:08:30;;;;;;;12.45;2.10;;;3.50;99.90;;;;;;4805792;29;20091;-79
2022/01/05 05:10:56;;;;;;;16.13;2.28;;;3.40;99.90;;;;;;4806269;29;20402;-79
2022/01/05 05:13:21;;;;;;;13.00;2.38;;;3.40;99.90;;;;;;4806749;29;20054;-79
2022/01/05 05:15:47;;;;;;;13.10;2.45;;;3.40;99.90;;;;;;4806177;29;20059;-78
2022/01/05 05:18:13;;;;;;;13.18;1.90;;;3.50;99.90;;;;;;4806670;29;20047;-79
2022/01/05 05:20:40;;;;;;;14.40;2.47;;;3.60;99.90;;;;;;4807088;29;20050;-79
2022/01/05 05:23:06;;;;;;;15.38;2.55;;;3.60;99.90;;;;;;4805909;29;20055;-79
2022/01/05 05:25:31;;;;;;;13.30;1.90;;;3.70;99.90;;;;;;4806759;29;20062;-79
2022/01/05 05:27:57;;;;;;;14.20;2.13;;;3.80;99.90;;;;;;4806937;29;20046;-79
2022/01/05 05:30:23;;;;;;;17.70;2.63;;;3.90;99.90;;;;;;4806259;29;20505;-79
2022/01/05 05:32:48;;;;;;;17.48;2.38;;;3.90;99.90;;;;;;4806398;29;20055;-80
2022/01/05 05:35:14;;;;;;;17.40;2.42;;;4.00;99.90;;;;;;4806295;29;20138;-81
2022/01/05 05:37:40;;;;;;;13.98;2.85;;;4.10;99.90;;;;;;4805707;29;20077;-80
2022/01/05 05:40:06;;;;;;;14.65;2.60;;;4.10;99.90;;;;;;4805555;29;20050;-80
2022/01/05 05:42:32;;;;;;;15.75;2.95;;;4.10;99.90;;;;;;4806168;29;20551;-80
2022/01/05 05:44:58;;;;;;;19.48;2.88;;;4.20;99.90;;;;;;4805363;29;20119;-79
2022/01/05 05:47:23;;;;;;;25.35;3.10;;;4.20;99.90;;;;;;4805016;29;20379;-80
2022/01/05 05:49:49;;;;;;;19.38;3.15;;;4.30;99.90;;;;;;4806280;29;20069;-80
2022/01/05 05:52:15;;;;;;;15.48;2.38;;;4.20;99.90;;;;;;4805897;29;20159;-83
2022/01/05 05:54:41;;;;;;;16.13;2.95;;;4.30;99.90;;;;;;4790624;29;20047;-83
2022/01/05 05:57:07;;;;;;;12.68;2.72;;;4.30;99.90;;;;;;4805509;29;20058;-83
2022/01/05 05:59:33;;;;;;;14.35;2.53;;;4.40;99.90;;;;;;4806380;29;20043;-84
2022/01/05 06:01:58;;;;;;;14.38;2.45;;;4.40;99.90;;;;;;4790581;29;20106;-84
2022/01/05 06:04:24;;;;;;;13.00;2.35;;;4.40;99.90;;;;;;4789532;29;20156;-84
2022/01/05 06:06:50;;;;;;;16.40;2.50;;;4.40;99.90;;;;;;4804900;29;20051;-84
2022/01/05 06:09:15;;;;;;;12.25;1.77;;;4.40;99.90;;;;;;4806067;29;20066;-80
2022/01/05 06:11:41;;;;;;;11.15;2.45;;;4.40;99.90;;;;;;4806259;29;20058;-81
2022/01/05 06:14:06;;;;;;;14.60;2.65;;;4.30;99.90;;;;;;4806067;29;20498;-80
2022/01/05 06:16:32;;;;;;;13.10;2.08;;;4.30;99.90;;;;;;4804315;29;20130;-79
2022/01/05 06:18:58;;;;;;;11.52;2.38;;;4.30;99.90;;;;;;4805874;29;20146;-79
2022/01/05 06:21:23;;;;;;;12.15;1.92;;;4.30;99.90;;;;;;4805447;29;20056;-79
2022/01/05 06:23:49;;;;;;;15.35;2.33;;;4.40;99.90;;;;;;4804918;29;20137;-79
2022/01/05 06:26:14;;;;;;;10.98;1.95;;;4.30;99.90;;;;;;4805712;29;20485;-79
2022/01/05 06:28:40;;;;;;;12.98;2.38;;;4.40;99.90;;;;;;4805480;29;20130;-79
2022/01/05 06:31:06;;;;;;;14.93;2.70;;;4.40;99.90;;;;;;4789793;29;20051;-79
2022/01/05 06:33:31;;;;;;;17.80;2.38;;;4.40;99.90;;;;;;4805384;29;20058;-79
2022/01/05 06:35:58;;;;;;;12.88;2.55;;;4.40;99.90;;;;;;4805925;29;20047;-79
2022/01/05 06:38:24;;;;;;;12.00;2.13;;;4.50;99.90;;;;;;4805413;29;20494;-79
2022/01/05 06:40:49;;;;;;;15.00;2.63;;;4.40;99.90;;;;;;4805677;29;20058;-80
2022/01/05 06:43:15;;;;;;;16.45;2.17;;;4.40;99.90;;;;;;4805473;29;20046;-79
2022/01/05 06:45:41;;;;;;;13.10;2.25;;;4.50;99.90;;;;;;4805217;29;20047;-79
2022/01/05 06:48:06;;;;;;;14.52;2.30;;;4.50;99.90;;;;;;4804594;29;20142;-79
2022/01/05 06:50:32;;;;;;;14.20;2.45;;;4.60;99.90;;;;;;4805183;29;20062;-80
2022/01/05 06:52:57;;;;;;;9.43;2.03;;;4.60;99.90;;;;;;4805677;29;20058;-79
2022/01/05 06:55:23;;;;;;;9.73;1.65;;;4.50;99.90;;;;;;4804035;29;20486;-80
2022/01/05 06:57:51;;;;;;;5.47;1.10;;;4.50;99.90;;;;;;4805584;29;20059;-80
2022/01/05 07:00:17;;;;;;;4.40;0.82;;;4.50;99.90;;;;;;4804398;29;20051;-80
2022/01/05 07:02:42;;;;;;;8.68;1.15;;;4.40;99.90;;;;;;4804045;29;20065;-80
2022/01/05 07:05:08;;;;;;;5.45;1.02;;;4.40;99.90;;;;;;4805616;29;20473;-80
2022/01/05 07:07:35;;;;;;;5.03;1.02;;;4.40;99.90;;;;;;4804079;29;20061;-79
2022/01/05 07:10:00;;;;;;;5.43;1.02;;;4.50;99.90;;;;;;4804518;29;20112;-79
2022/01/05 07:12:26;;;;;;;6.78;0.98;;;4.40;99.90;;;;;;4805073;29;20050;-79
2022/01/05 07:14:52;;;;;;;8.40;1.30;;;4.40;99.90;;;;;;4804319;29;20190;-79
2022/01/05 07:17:18;;;;;;;10.70;1.52;;;4.40;99.90;;;;;;4804770;29;20054;-80
2022/01/05 07:19:44;;;;;;;11.50;1.70;;;4.40;99.90;;;;;;4808412;29;20051;-80
2022/01/05 07:22:10;;;;;;;12.50;1.58;;;4.40;99.90;;;;;;4809034;29;20061;-80
2022/01/05 07:24:35;;;;;;;12.48;1.67;;;4.50;99.90;;;;;;4808534;29;20133;-79
2022/01/05 07:27:01;;;;;;;5.07;1.20;;;4.50;99.90;;;;;;4808086;29;20093;-88
2022/01/05 07:29:27;;;;;;;11.52;2.30;;;4.50;99.90;;;;;;4807764;29;20054;-83
2022/01/05 07:31:52;;;;;;;10.80;1.70;;;4.60;99.90;;;;;;4808795;29;20103;-85
2022/01/05 07:34:18;;;;;;;16.50;2.10;;;4.60;99.90;;;;;;4807729;29;20055;-87
2022/01/05 07:36:44;;;;;;;10.43;1.67;;;4.70;99.90;;;;;;4777643;29;20504;-82
2022/01/05 07:39:09;;;;;;;14.48;2.38;;;4.70;99.90;;;;;;4808668;29;20090;-81
2022/01/05 07:41:36;;;;;;;14.52;2.17;;;4.70;99.90;;;;;;4808181;29;20054;-82
2022/01/05 07:44:01;;;;;;;13.70;2.28;;;4.80;99.90;;;;;;4808764;29;20050;-83
2022/01/05 07:46:27;;;;;;;10.90;2.30;;;4.80;99.90;;;;;;4807537;29;20447;-82
2022/01/05 07:48:53;;;;;;;9.93;1.80;;;4.90;99.90;;;;;;4808575;29;20047;-82
2022/01/05 07:51:18;;;;;;;12.65;1.77;;;5.00;99.90;;;;;;4792389;29;20058;-82
2022/01/05 07:53:44;;;;;;;15.35;2.17;;;5.00;99.90;;;;;;4808208;29;20094;-82
2022/01/05 07:56:10;;;;;;;16.40;2.05;;;5.00;99.90;;;;;;4807382;29;20191;-82
2022/01/05 07:58:36;;;;;;;15.68;2.17;;;5.00;99.90;;;;;;4807124;29;20583;-82
2022/01/05 08:01:03;;;;;;;17.23;2.60;;;5.10;99.90;;;;;;4807310;29;20046;-82
2022/01/05 08:03:30;;;;;;;11.38;2.03;;;5.10;99.90;;;;;;4807253;29;20133;-82
2022/01/05 08:05:56;;;;;;;6.25;1.20;;;5.10;99.90;;;;;;4807936;29;20187;-82
2022/01/05 08:08:22;;;;;;;8.50;1.42;;;5.10;99.90;;;;;;4808295;29;20130;-85
2022/01/05 08:10:47;;;;;;;6.40;1.17;;;5.10;99.90;;;;;;4791725;29;20047;-84
2022/01/05 08:13:13;;;;;;;10.82;1.70;;;5.10;99.90;;;;;;4807085;29;20050;-84
2022/01/05 08:15:38;;;;;;;8.05;1.38;;;5.10;99.90;;;;;;4808029;29;20141;-84
2022/01/05 08:18:04;;;;;;;10.38;1.23;;;5.10;99.90;;;;;;4808210;29;20055;-85
2022/01/05 08:20:30;;;;;;;7.45;1.40;;;5.10;99.90;;;;;;4807003;29;20050;-84
2022/01/05 08:22:55;;;;;;;13.05;1.67;;;5.10;99.90;;;;;;4806544;29;20131;-84
2022/01/05 08:25:21;;;;;;;13.85;2.50;;;5.10;99.90;;;;;;4807878;29;20077;-86
2022/01/05 08:27:47;;;;;;;14.38;2.50;;;5.20;99.90;;;;;;4806927;29;20117;-82
2022/01/05 08:30:13;;;;;;;14.35;2.00;;;5.20;99.90;;;;;;4791726;29;20466;-81
2022/01/05 08:32:38;;;;;;;14.43;2.03;;;5.20;99.90;;;;;;4807184;29;20149;-81
2022/01/05 08:35:05;;;;;;;11.80;2.03;;;5.30;99.90;;;;;;4806498;29;20054;-80
2022/01/05 08:37:30;;;;;;;11.43;1.90;;;5.30;99.90;;;;;;4807521;29;20397;-80
2022/01/05 08:39:56;;;;;;;14.88;1.98;;;5.30;99.90;;;;;;4807050;29;20133;-80
2022/01/05 08:42:22;;;;;;;10.00;1.38;;;5.30;99.90;;;;;;4806499;29;20054;-80
2022/01/05 08:44:47;;;;;;;8.02;1.50;;;5.30;99.90;;;;;;4807054;29;20467;-81
2022/01/05 08:47:13;;;;;;;5.97;1.33;;;5.30;99.90;;;;;;4791326;29;20059;-80
2022/01/05 08:49:39;;;;;;;8.85;1.42;;;5.30;99.90;;;;;;4806283;29;20402;-80
2022/01/05 08:52:04;;;;;;;10.90;1.15;;;5.30;99.90;;;;;;4807632;29;20089;-81
2022/01/05 08:54:30;;;;;;;9.65;1.20;;;5.30;99.90;;;;;;4807891;29;20054;-80
2022/01/05 08:56:56;;;;;;;11.05;1.38;;;5.40;99.90;;;;;;4806040;29;20107;-79
2022/01/05 08:59:21;;;;;;;10.65;1.52;;;5.40;99.90;;;;;;4806239;29;20095;-81
2022/01/05 09:01:47;;;;;;;7.03;1.70;;;5.50;99.90;;;;;;4807019;29;20054;-81
2022/01/05 09:04:12;;;;;;;5.05;1.00;;;5.60;99.90;;;;;;4806248;29;20050;-80
2022/01/05 09:06:38;;;;;;;10.38;1.58;;;5.50;99.90;;;;;;4807359;29;20058;-80
2022/01/05 09:09:04;;;;;;;10.30;1.60;;;5.60;99.90;;;;;;4790761;29;20062;-81
2022/01/05 09:11:30;;;;;;;12.93;1.70;;;5.60;99.90;;;;;;4806030;29;20050;-80
2022/01/05 09:13:55;;;;;;;11.20;1.52;;;5.60;99.90;;;;;;4805662;29;20050;-81
2022/01/05 09:16:21;;;;;;;17.50;1.88;;;5.50;99.90;;;;;;4806916;29;20545;-81
2022/01/05 09:18:47;;;;;;;11.63;1.88;;;5.40;99.90;;;;;;4805729;29;20134;-81
2022/01/05 09:21:13;;;;;;;10.43;1.75;;;5.30;99.90;;;;;;4806968;29;20134;-81
2022/01/05 09:23:38;;;;;;;13.50;2.30;;;5.30;99.90;;;;;;4807106;29;20059;-81
2022/01/05 09:26:04;;;;;;;16.08;1.90;;;5.30;99.90;;;;;;4806541;29;20054;-81
2022/01/05 09:28:29;;;;;;;9.48;2.10;;;5.30;99.90;;;;;;4805856;29;20051;-80
2022/01/05 09:30:55;;;;;;;13.85;2.35;;;5.30;99.90;;;;;;4805365;29;20474;-80
2022/01/05 09:33:23;;;;;;;14.77;2.22;;;5.20;99.90;;;;;;4806882;29;20119;-82
2022/01/05 09:35:50;;;;;;;13.30;2.17;;;5.20;99.90;;;;;;4806482;29;20063;-81
2022/01/05 09:38:35;;;;;;;10.57;1.88;;;5.20;99.90;;;;;;4805737;29;20058;-80
2022/01/05 09:43:51;;;;;;;14.27;2.33;;;5.40;99.90;;;;;;4805568;29;20520;-83
2022/01/05 09:46:25;;;;;;;17.70;2.78;;;5.50;99.90;;;;;;4806712;29;20073;-80
2022/01/05 09:49:10;;;;;;;22.75;3.50;;;5.60;99.90;;;;;;4804714;29;20493;-80
2022/01/05 09:51:37;;;;;;;20.45;3.50;;;5.70;99.90;;;;;;4806248;29;20502;-80
2022/01/05 09:54:03;;;;;;;20.73;2.88;;;5.70;99.90;;;;;;4805705;29;20047;-80
2022/01/05 09:56:30;;;;;;;25.83;3.53;;;5.70;99.90;;;;;;4806153;29;20437;-80
2022/01/05 09:59:00;;;;;;;26.75;3.80;;;5.80;99.90;;;;;;4805931;29;20135;-80
2022/01/05 10:01:28;;;;;;;20.70;3.55;;;5.90;99.90;;;;;;4806050;29;20143;-80
2022/01/05 10:03:54;;;;;;;30.13;4.30;;;5.90;99.90;;;;;;4804536;29;20090;-81
2022/01/05 10:06:20;;;;;;;24.17;3.90;;;6.10;99.90;;;;;;4804856;29;20093;-80
2022/01/05 10:08:45;;;;;;;24.90;3.63;;;6.20;99.90;;;;;;4806026;29;20562;-80
2022/01/05 10:11:11;;;;;;;28.25;4.45;;;6.30;99.90;;;;;;4804473;29;20134;-82
2022/01/05 10:13:37;;;;;;;23.10;3.78;;;6.30;99.90;;;;;;4805849;29;20047;-81
2022/01/05 10:16:02;;;;;;;21.27;3.83;;;6.30;99.90;;;;;;4805677;29;20042;-81
2022/01/05 10:18:28;;;;;;;20.02;3.33;;;6.30;99.90;;;;;;4805215;29;20523;-81
2022/01/05 10:21:02;;;;;;;23.98;3.67;;;6.30;99.90;;;;;;4804355;29;20410;-81
2022/01/05 10:23:46;;;;;;;19.27;3.50;;;6.30;99.90;;;;;;4806101;29;20141;-81
2022/01/05 10:26:23;;;;;;;20.90;4.45;;;6.20;99.90;;;;;;4805403;29;20591;-81
2022/01/05 10:28:50;;;;;;;26.73;3.95;;;6.20;99.90;;;;;;4790202;29;20065;-81
2022/01/05 10:31:18;;;;;;;23.00;3.47;;;6.20;99.90;;;;;;4804399;29;20108;-81
2022/01/05 10:33:44;;;;;;;28.30;3.80;;;6.10;99.90;;;;;;4805918;29;20455;-81
2022/01/05 10:36:09;;;;;;;19.05;3.38;;;6.20;99.90;;;;;;4804262;29;20054;-81
2022/01/05 10:38:35;;;;;;;19.25;3.00;;;6.10;99.90;;;;;;4804777;29;20047;-81
2022/01/05 10:41:16;;;;;;;23.25;3.20;;;6.10;99.90;;;;;;4805306;29;20086;-81
2022/01/05 10:44:11;;;;;;;23.20;2.95;;;6.20;99.90;;;;;;4805832;29;20391;-81
2022/01/05 10:46:58;;;;;;;21.50;3.42;;;6.30;99.90;;;;;;4804603;29;20077;-81
2022/01/05 10:49:34;;;;;;;21.60;3.03;;;6.30;99.90;;;;;;4805604;29;20047;-81
2022/01/05 10:52:02;;;;;;;25.25;3.05;;;6.30;99.90;;;;;;4805404;29;20062;-81
2022/01/05 10:54:29;;;;;;;20.95;3.17;;;6.30;99.90;;;;;;4805639;29;20070;-81
2022/01/05 10:57:08;;;;;;;15.38;3.28;;;6.30;99.90;;;;;;4805697;29;20513;-81
2022/01/05 10:59:42;;;;;;;21.38;3.17;;;6.40;99.90;;;;;;4804483;29;20097;-81
2022/01/05 11:02:21;;;;;;;23.88;3.75;;;6.50;99.90;;;;;;4805201;29;20055;-81
2022/01/05 11:04:48;;;;;;;21.35;3.13;;;6.50;99.90;;;;;;4804444;29;20142;-81
2022/01/05 11:07:23;;;;;;;12.65;3.08;;;6.50;99.90;;;;;;4805059;29;20055;-81
2022/01/05 11:10:00;;;;;;;18.05;3.15;;;6.60;99.90;;;;;;4804384;29;20466;-85
2022/01/05 11:12:46;;;;;;;14.38;3.20;;;6.70;99.90;;;;;;4803930;29;20154;-78
2022/01/05 11:15:31;;;;;;;21.67;3.20;;;6.90;99.90;;;;;;4796282;29;20406;-78
2022/01/05 11:18:17;;;;;;;15.73;2.67;;;7.00;99.90;;;;;;4787498;29;20047;-78
2022/01/05 11:20:51;;;;;;;16.30;2.60;;;7.20;99.90;;;;;;4806750;29;20055;-78
2022/01/05 11:23:20;;;;;;;12.50;1.98;;;7.20;99.90;;;;;;4822004;29;20058;-79
2022/01/05 11:25:46;;;;;;;16.90;2.28;;;7.20;99.90;;;;;;4822308;29;20054;-80
2022/01/05 11:28:13;;;;;;;12.48;2.33;;;7.10;99.90;;;;;;4822946;29;20046;-80
2022/01/05 11:30:39;;;;;;;14.75;2.42;;;7.10;99.90;;;;;;4823402;29;20090;-80
2022/01/05 11:33:05;;;;;;;16.83;2.78;;;7.10;99.90;;;;;;4810587;29;20183;-81
2022/01/05 11:35:31;;;;;;;17.55;3.15;;;7.10;99.90;;;;;;4805274;29;20406;-81
2022/01/05 11:37:56;;;;;;;19.83;2.80;;;7.10;99.90;;;;;;4774270;29;20047;-81
2022/01/05 11:40:22;;;;;;;16.13;2.53;;;7.10;99.90;;;;;;4804596;29;20047;-81
2022/01/05 11:42:49;;;;;;;20.17;2.80;;;7.30;99.90;;;;;;4805243;29;20093;-81
2022/01/05 11:45:28;;;;;;;14.45;2.92;;;7.40;99.90;;;;;;4788563;29;20481;-81
2022/01/05 11:48:12;;;;;;;16.60;2.53;;;7.50;99.90;;;;;;4805161;29;20058;-80
2022/01/05 11:50:52;;;;;;;14.07;2.92;;;7.50;99.90;;;;;;4790444;29;20067;-79
2022/01/05 11:53:41;;;;;;;14.93;2.90;;;7.40;99.90;;;;;;4804448;29;20155;-81
2022/01/05 11:56:15;;;;;;;17.08;2.63;;;7.50;99.90;;;;;;4804781;29;20055;-81
2022/01/05 11:58:55;;;;;;;15.65;2.50;;;7.50;99.90;;;;;;4804488;29;20062;-80
2022/01/05 12:01:24;;;;;;;13.13;2.38;;;7.50;99.90;;;;;;4807645;29;20046;-80
2022/01/05 12:03:59;;;;;;;11.60;1.85;;;7.50;99.90;;;;;;4812641;29;20047;-80
2022/01/05 12:06:26;;;;;;;10.98;2.15;;;7.30;99.90;;;;;;4806320;29;20099;-80
2022/01/05 12:08:56;;;;;;;16.05;2.00;;;7.30;99.90;;;;;;4805917;29;20407;-80
2022/01/05 12:11:41;;;;;;;15.00;2.15;;;7.20;99.90;;;;;;4824146;29;20046;-80
2022/01/05 12:14:28;;;;;;;14.00;2.42;;;7.30;99.90;;;;;;4819177;29;20059;-80
2022/01/05 12:17:05;;;;;;;16.92;2.55;;;7.30;99.90;;;;;;4806060;29;20119;-86
2022/01/05 12:19:34;;;;;;;18.33;2.47;;;7.20;99.90;;;;;;4806127;29;20047;-86
2022/01/05 12:22:13;;;;;;;15.70;2.57;;;7.20;99.90;;;;;;4805376;29;20187;-81
2022/01/05 12:24:54;;;;;;;15.02;2.40;;;7.20;99.90;;;;;;4823179;29;20054;-81
2022/01/05 12:27:27;;;;;;;11.60;2.70;;;7.30;99.90;;;;;;4807292;29;20520;-81
2022/01/05 12:29:53;;;;;;;16.33;2.83;;;7.40;99.90;;;;;;4807576;29;20520;-86
2022/01/05 12:32:38;;;;;;;18.85;2.85;;;7.50;99.90;;;;;;4791640;29;20066;-84
2022/01/05 12:35:08;;;;;;;15.27;2.78;;;7.60;99.90;;;;;;4791445;29;20410;-83
2022/01/05 12:37:40;;;;;;;17.30;2.80;;;7.80;99.90;;;;;;4806577;29;20059;-89
2022/01/05 12:40:27;;;;;;;16.38;2.40;;;7.90;99.90;;;;;;4805892;29;20086;-86
2022/01/05 12:43:08;;;;;;;13.68;2.75;;;7.90;99.90;;;;;;4806327;29;20060;-83
2022/01/05 12:45:53;;;;;;;21.95;3.47;;;7.90;99.90;;;;;;4806744;29;20219;-84
2022/01/05 12:48:35;;;;;;;21.60;3.35;;;7.80;99.90;;;;;;4806374;29;20434;-84
2022/01/05 12:51:20;;;;;;;18.42;2.97;;;7.80;99.90;;;;;;4806945;29;20413;-85
2022/01/05 12:53:52;;;;;;;22.73;2.92;;;7.80;99.90;;;;;;4806828;29;20078;-85